createdAt,value
2016-07-27T00:00:00.566Z,78.55
2016-07-27T00:01:00.567Z,78.55
2016-07-27T00:02:00.566Z,77.78
2016-07-27T00:03:00.580Z,78.08
2016-07-27T00:04:00.563Z,77.88
2016-07-27T00:05:00.564Z,77.59
2016-07-27T00:06:00.561Z,77.98
2016-07-27T00:07:00.560Z,78.36
2016-07-27T00:08:00.565Z,78.84
2016-07-27T00:09:00.566Z,78.65
2016-07-27T00:10:00.560Z,78.27
2016-07-27T00:11:00.568Z,78.27
2016-07-27T00:12:01.255Z,78.45
2016-07-27T00:13:00.555Z,78.27
2016-07-27T00:14:00.559Z,78.36
2016-07-27T00:15:00.554Z,77.98
2016-07-27T00:16:00.554Z,78.36
2016-07-27T00:17:00.548Z,78.08
2016-07-27T00:18:00.548Z,79.03
2016-07-27T00:19:00.552Z,78.94
2016-07-27T00:21:00.850Z,78.55
2016-07-27T00:22:00.550Z,78.55
2016-07-27T00:23:00.542Z,78.45
2016-07-27T00:24:00.545Z,78.27
2016-07-27T00:25:00.893Z,78.23
2016-07-27T00:26:00.545Z,78.55
2016-07-27T00:27:00.540Z,78.52
2016-07-27T00:28:00.538Z,78.42
2016-07-27T00:29:15.451Z,78.99
2016-07-27T00:30:00.542Z,78.99
2016-07-27T00:32:00.535Z,79.19
2016-07-27T00:33:00.537Z,78.61
2016-07-27T00:34:00.532Z,78.7
2016-07-27T00:35:00.536Z,78.99
2016-07-27T00:36:00.531Z,78.52
2016-07-27T00:37:00.534Z,78.32
2016-07-27T00:38:00.532Z,78.42
2016-07-27T00:39:00.524Z,78.7
2016-07-27T00:40:00.531Z,78.52
2016-07-27T00:41:00.529Z,78.42
2016-07-27T00:42:00.525Z,78.13
2016-07-27T00:43:00.523Z,78.23
2016-07-27T00:44:00.532Z,77.75
2016-07-27T00:45:00.516Z,78.42
2016-07-27T00:46:00.522Z,78.32
2016-07-27T00:47:00.520Z,78.52
2016-07-27T00:48:00.516Z,78.61
2016-07-27T00:49:00.518Z,78.32
2016-07-27T00:50:00.614Z,78.32
2016-07-27T00:51:00.518Z,78.23
2016-07-27T00:52:00.516Z,78.42
2016-07-27T00:53:00.509Z,78.52
2016-07-27T00:54:00.509Z,78.52
2016-07-27T00:55:00.506Z,78.52
2016-07-27T00:56:00.506Z,78.42
2016-07-27T00:57:02.020Z,78.42
2016-07-27T00:58:01.093Z,78.52
2016-07-27T00:59:00.601Z,78.42
2016-07-27T01:00:00.502Z,78.52
2016-07-27T01:01:01.279Z,78.61
2016-07-27T01:02:01.875Z,78.32
2016-07-27T01:03:00.497Z,78.42
2016-07-27T01:04:00.495Z,78.52
2016-07-27T01:05:00.586Z,78.32
2016-07-27T01:06:00.496Z,78.52
2016-07-27T01:07:00.990Z,78.42
2016-07-27T01:08:00.507Z,78.42
2016-07-27T01:09:00.493Z,78.13
2016-07-27T01:10:00.888Z,78.32
2016-07-27T01:11:00.487Z,78.19
2016-07-27T01:12:00.487Z,78.19
2016-07-27T01:13:00.497Z,78.67
2016-07-27T01:14:00.481Z,78.47
2016-07-27T01:15:00.477Z,78.57
2016-07-27T01:16:00.476Z,78.86
2016-07-27T01:17:00.479Z,79.19
2016-07-27T01:18:00.482Z,78.38
2016-07-27T01:19:00.475Z,78.77
2016-07-27T01:20:00.475Z,79.24
2016-07-27T01:21:00.477Z,79.53
2016-07-27T01:22:00.476Z,79.53
2016-07-27T01:23:00.474Z,79.44
2016-07-27T01:24:00.472Z,79.14
2016-07-27T01:25:00.470Z,78.77
2016-07-27T01:26:00.469Z,78.96
2016-07-27T01:27:00.472Z,78.47
2016-07-27T01:28:00.462Z,78.38
2016-07-27T01:29:00.465Z,78.67
2016-07-27T01:30:00.467Z,78.7
2016-07-27T01:31:00.462Z,78.57
2016-07-27T01:32:00.462Z,78.19
2016-07-27T01:33:00.456Z,78.57
2016-07-27T01:34:00.462Z,78.19
2016-07-27T01:35:00.454Z,78.38
2016-07-27T01:36:00.455Z,78.47
2016-07-27T01:37:00.455Z,78.77
2016-07-27T01:38:00.455Z,78.57
2016-07-27T01:39:00.457Z,78.86
2016-07-27T01:40:00.459Z,79.05
2016-07-27T01:41:00.447Z,79.34
2016-07-27T01:42:01.151Z,79.53
2016-07-27T01:43:00.698Z,79.14
2016-07-27T01:44:00.441Z,79.24
2016-07-27T01:45:00.447Z,79.14
2016-07-27T01:46:00.444Z,79.72
2016-07-27T01:47:00.442Z,79.24
2016-07-27T01:48:01.192Z,79.14
2016-07-27T01:49:01.046Z,79.05
2016-07-27T01:50:00.439Z,79.05
2016-07-27T01:51:00.941Z,79.34
2016-07-27T01:52:00.835Z,78.96
2016-07-27T01:53:00.434Z,79.34
2016-07-27T01:54:00.428Z,79.82
2016-07-27T01:55:00.430Z,80.01
2016-07-27T01:56:00.433Z,79.82
2016-07-27T01:57:00.433Z,79.82
2016-07-27T01:58:00.425Z,79.82
2016-07-27T01:59:00.421Z,80.01
2016-07-27T02:00:00.423Z,80.01
2016-07-27T02:01:00.422Z,80.49
2016-07-27T02:02:00.422Z,80.4
2016-07-27T02:03:00.414Z,80.2
2016-07-27T02:04:00.413Z,80.3
2016-07-27T02:05:00.413Z,80.49
2016-07-27T02:06:00.415Z,81.07
2016-07-27T02:07:00.413Z,80.58
2016-07-27T02:08:00.412Z,81.07
2016-07-27T02:09:00.413Z,80.74
2016-07-27T02:10:00.405Z,80.45
2016-07-27T02:11:00.403Z,80.55
2016-07-27T02:12:00.401Z,80.68
2016-07-27T02:13:00.403Z,80.74
2016-07-27T02:14:00.403Z,80.68
2016-07-27T02:15:00.404Z,80.49
2016-07-27T02:16:01.362Z,81.22
2016-07-27T02:17:00.398Z,81.22
2016-07-27T02:18:00.395Z,81.35
2016-07-27T02:19:00.394Z,81.64
2016-07-27T02:20:00.999Z,81.41
2016-07-27T02:21:00.391Z,81.45
2016-07-27T02:22:00.389Z,81.07
2016-07-27T02:23:00.391Z,81.35
2016-07-27T02:24:01.901Z,81.35
2016-07-27T02:25:00.390Z,81.31
2016-07-27T02:26:01.464Z,81.7
2016-07-27T02:27:00.385Z,81.51
2016-07-27T02:28:01.421Z,81.84
2016-07-27T02:29:00.651Z,81.51
2016-07-27T02:30:00.376Z,81.7
2016-07-27T02:31:00.373Z,81.51
2016-07-27T02:32:00.371Z,81.31
2016-07-27T02:33:00.373Z,81.6
2016-07-27T02:34:00.373Z,81.98
2016-07-27T02:35:00.372Z,82.27
2016-07-27T02:36:00.369Z,82.18
2016-07-27T02:37:00.363Z,82.08
2016-07-27T02:38:00.369Z,81.89
2016-07-27T02:39:00.365Z,82.18
2016-07-27T02:40:00.360Z,82.18
2016-07-27T02:41:00.364Z,82.46
2016-07-27T02:42:00.361Z,82.27
2016-07-27T02:43:00.358Z,82.85
2016-07-27T02:44:00.359Z,82.65
2016-07-27T02:45:00.355Z,83.04
2016-07-27T02:46:00.357Z,82.85
2016-07-27T02:47:00.352Z,82.85
2016-07-27T02:48:00.352Z,82.37
2016-07-27T02:49:00.349Z,82.56
2016-07-27T02:50:00.396Z,82.65
2016-07-27T02:51:00.345Z,82.65
2016-07-27T02:52:00.339Z,82.94
2016-07-27T02:53:00.344Z,82.56
2016-07-27T02:54:00.341Z,82.46
2016-07-27T02:55:00.339Z,82.56
2016-07-27T02:56:00.336Z,82.56
2016-07-27T02:57:00.632Z,83.04
2016-07-27T02:58:00.784Z,83.04
2016-07-27T02:59:00.330Z,82.85
2016-07-27T03:00:00.334Z,82.94
2016-07-27T03:01:00.330Z,83.04
2016-07-27T03:02:00.328Z,82.65
2016-07-27T03:03:00.730Z,83.04
2016-07-27T03:04:00.323Z,82.85
2016-07-27T03:05:00.323Z,83.04
2016-07-27T03:06:00.674Z,83.04
2016-07-27T03:07:01.820Z,83.04
2016-07-27T03:08:00.320Z,82.85
2016-07-27T03:10:00.317Z,83.33
2016-07-27T03:11:00.311Z,83.14
2016-07-27T03:12:00.314Z,83.33
2016-07-27T03:13:00.415Z,83.61
2016-07-27T03:14:00.306Z,84
2016-07-27T03:15:00.321Z,83.91
2016-07-27T03:16:00.303Z,83.61
2016-07-27T03:17:00.307Z,84.19
2016-07-27T03:18:00.306Z,84.09
2016-07-27T03:19:00.304Z,84.09
2016-07-27T03:20:00.300Z,83.42
2016-07-27T03:21:00.299Z,84.09
2016-07-27T03:22:00.294Z,83.42
2016-07-27T03:23:00.293Z,83.23
2016-07-27T03:24:00.294Z,82.94
2016-07-27T03:25:00.290Z,82.94
2016-07-27T03:26:00.295Z,83.42
2016-07-27T03:27:00.291Z,83.23
2016-07-27T03:28:00.291Z,83.33
2016-07-27T03:29:00.284Z,82.85
2016-07-27T03:30:00.278Z,83.42
2016-07-27T03:31:00.282Z,83.81
2016-07-27T03:32:00.279Z,83.81
2016-07-27T03:33:00.278Z,83.91
2016-07-27T03:34:00.276Z,84
2016-07-27T03:35:01.852Z,84
2016-07-27T03:36:00.272Z,84
2016-07-27T03:38:00.270Z,83.85
2016-07-27T03:39:00.268Z,83.47
2016-07-27T03:40:00.263Z,83.94
2016-07-27T03:41:00.270Z,83.85
2016-07-27T03:42:00.262Z,83.94
2016-07-27T03:43:01.779Z,83.85
2016-07-27T03:44:00.261Z,83.94
2016-07-27T03:45:01.701Z,84.14
2016-07-27T03:46:00.259Z,84.14
2016-07-27T03:47:00.258Z,83.65
2016-07-27T03:48:00.256Z,83.47
2016-07-27T03:49:00.251Z,83.56
2016-07-27T03:50:00.248Z,83.37
2016-07-27T03:51:00.255Z,83.18
2016-07-27T03:53:00.248Z,83.08
2016-07-27T03:54:00.248Z,83.27
2016-07-27T03:55:00.246Z,83.37
2016-07-27T03:56:00.245Z,82.98
2016-07-27T03:57:00.239Z,82.89
2016-07-27T03:58:00.241Z,82.98
2016-07-27T03:59:00.243Z,82.03
2016-07-27T04:00:00.240Z,82.54
2016-07-27T04:01:00.235Z,81.68
2016-07-27T04:02:00.240Z,81.68
2016-07-27T04:03:00.234Z,81.68
2016-07-27T04:04:00.231Z,81.3
2016-07-27T04:05:00.233Z,80.91
2016-07-27T04:06:00.228Z,80.96
2016-07-27T04:08:00.228Z,80.57
2016-07-27T04:09:00.231Z,80.13
2016-07-27T04:10:00.229Z,80.22
2016-07-27T04:11:00.225Z,79.65
2016-07-27T04:12:00.225Z,79.4
2016-07-27T04:13:00.225Z,79.11
2016-07-27T04:14:00.228Z,78.92
2016-07-27T04:15:00.235Z,78.25
2016-07-27T04:16:15.138Z,77.76
2016-07-27T04:17:00.226Z,77.71
2016-07-27T04:18:00.224Z,77.51
2016-07-27T04:19:00.879Z,77.33
2016-07-27T04:20:00.224Z,76.65
2016-07-27T04:21:00.223Z,75.88
2016-07-27T04:23:00.233Z,75.69
2016-07-27T04:24:00.472Z,75.34
2016-07-27T04:25:00.570Z,75.05
2016-07-27T04:26:00.225Z,74.57
2016-07-27T04:27:00.229Z,74.61
2016-07-27T04:28:00.230Z,74.61
2016-07-27T04:29:00.228Z,73.78
2016-07-27T04:30:00.328Z,73.39
2016-07-27T04:31:00.232Z,72.27
2016-07-27T04:32:00.234Z,72.37
2016-07-27T04:33:00.234Z,72.08
2016-07-27T04:34:00.234Z,71.89
2016-07-27T04:35:00.250Z,71.31
2016-07-27T04:36:00.240Z,71.06
2016-07-27T04:37:00.238Z,70.96
2016-07-27T04:38:00.244Z,70.96
2016-07-27T04:39:00.244Z,70.19
2016-07-27T04:40:00.248Z,70.57
2016-07-27T04:41:00.247Z,69.45
2016-07-27T04:42:00.256Z,69.55
2016-07-27T04:43:00.249Z,68.87
2016-07-27T04:44:00.250Z,68.49
2016-07-27T04:45:00.257Z,68.29
2016-07-27T04:46:00.257Z,67.91
2016-07-27T04:47:00.264Z,67.81
2016-07-27T04:48:00.263Z,68.19
2016-07-27T04:49:00.268Z,68.01
2016-07-27T04:50:00.369Z,67.62
2016-07-27T04:51:00.270Z,68.19
2016-07-27T04:52:00.996Z,67.71
2016-07-27T04:53:01.335Z,67.81
2016-07-27T04:54:00.277Z,67.91
2016-07-27T04:55:00.283Z,67.71
2016-07-27T04:56:00.279Z,67.33
2016-07-27T04:57:00.287Z,66.94
2016-07-27T04:58:00.640Z,66.27
2016-07-27T04:59:00.287Z,65.91
2016-07-27T05:00:00.288Z,66.11
2016-07-27T05:01:00.994Z,66.4
2016-07-27T05:02:01.229Z,65.72
2016-07-27T05:03:00.297Z,65.63
2016-07-27T05:04:01.178Z,65.05
2016-07-27T05:05:00.304Z,64.69
2016-07-27T05:06:00.309Z,64.4
2016-07-27T05:07:00.311Z,64.59
2016-07-27T05:08:00.313Z,64.11
2016-07-27T05:09:00.323Z,64.01
2016-07-27T05:10:00.323Z,63.73
2016-07-27T05:11:00.326Z,63.37
2016-07-27T05:12:00.327Z,63.28
2016-07-27T05:13:00.337Z,62.53
2016-07-27T05:14:00.345Z,61.95
2016-07-27T05:15:00.342Z,61.47
2016-07-27T05:16:00.348Z,61.47
2016-07-27T05:17:00.347Z,61.47
2016-07-27T05:18:00.361Z,60.41
2016-07-27T05:19:00.359Z,60.34
2016-07-27T05:20:00.365Z,60.44
2016-07-27T05:21:00.367Z,60.53
2016-07-27T05:22:00.374Z,59.86
2016-07-27T05:23:00.380Z,59.38
2016-07-27T05:24:00.379Z,59.56
2016-07-27T05:25:00.389Z,59.47
2016-07-27T05:26:00.387Z,59.28
2016-07-27T05:27:00.393Z,58.5
2016-07-27T05:28:00.405Z,58.04
2016-07-27T05:29:00.412Z,58.34
2016-07-27T05:30:00.409Z,57.95
2016-07-27T05:31:01.118Z,57.18
2016-07-27T05:32:00.426Z,56.92
2016-07-27T05:34:00.633Z,56.26
2016-07-27T05:35:00.436Z,55.9
2016-07-27T05:36:00.643Z,54.84
2016-07-27T05:37:01.054Z,53.83
2016-07-27T05:38:00.456Z,53.24
2016-07-27T05:39:00.867Z,52.5
2016-07-27T05:40:00.774Z,52.23
2016-07-27T05:41:00.479Z,50.96
2016-07-27T05:42:00.488Z,50.24
2016-07-27T05:43:00.490Z,50.04
2016-07-27T05:44:00.503Z,49.19
2016-07-27T05:45:00.807Z,48.8
2016-07-27T05:46:00.518Z,47.96
2016-07-27T05:47:01.079Z,47.27
2016-07-27T05:48:00.535Z,46.91
2016-07-27T05:49:00.543Z,47.1
2016-07-27T05:50:00.555Z,46.64
2016-07-27T05:51:00.562Z,45.57
2016-07-27T05:52:00.577Z,44.52
2016-07-27T05:53:00.581Z,43.74
2016-07-27T05:54:00.597Z,43.35
2016-07-27T05:55:00.602Z,42.76
2016-07-27T05:56:00.611Z,42.76
2016-07-27T05:57:00.619Z,43.15
2016-07-27T05:58:00.629Z,43.35
2016-07-27T05:59:00.637Z,42.96
2016-07-27T06:00:00.643Z,42.69
2016-07-27T06:01:00.659Z,41.91
2016-07-27T06:02:00.669Z,41.73
2016-07-27T06:03:00.677Z,41.54
2016-07-27T06:04:00.687Z,41.52
2016-07-27T06:05:00.699Z,41.54
2016-07-27T06:06:00.710Z,40.86
2016-07-27T06:07:00.723Z,40.29
2016-07-27T06:08:00.732Z,39.88
2016-07-27T06:09:00.736Z,39.31
2016-07-27T06:10:00.750Z,39.31
2016-07-27T06:11:02.008Z,39.41
2016-07-27T06:12:00.770Z,39.61
2016-07-27T06:13:00.782Z,39.33
2016-07-27T06:14:01.104Z,38.87
2016-07-27T06:15:00.801Z,38.38
2016-07-27T06:16:00.812Z,37.93
2016-07-27T06:17:00.823Z,37.65
2016-07-27T06:18:00.837Z,37.47
2016-07-27T06:19:02.237Z,37.08
2016-07-27T06:20:00.858Z,36.3
2016-07-27T06:21:02.254Z,35.91
2016-07-27T06:22:00.877Z,35.03
2016-07-27T06:23:01.253Z,35.32
2016-07-27T06:24:00.899Z,35.22
2016-07-27T06:25:00.911Z,34.93
2016-07-27T06:26:00.924Z,34.62
2016-07-27T06:27:01.058Z,34.31
2016-07-27T06:28:00.958Z,34.97
2016-07-27T06:29:00.957Z,34.86
2016-07-27T06:30:00.972Z,34.86
2016-07-27T06:31:00.985Z,34.84
2016-07-27T06:32:00.990Z,35.06
2016-07-27T06:33:01.005Z,35.06
2016-07-27T06:34:01.024Z,35.27
2016-07-27T06:35:01.033Z,35.27
2016-07-27T06:36:01.042Z,34.5
2016-07-27T06:37:01.050Z,34.21
2016-07-27T06:38:01.066Z,33.72
2016-07-27T06:39:01.081Z,33.72
2016-07-27T06:40:01.087Z,33.23
2016-07-27T06:41:01.105Z,33.72
2016-07-27T06:42:01.118Z,33.62
2016-07-27T06:43:01.134Z,33.53
2016-07-27T06:44:01.141Z,33.23
2016-07-27T06:45:01.151Z,33.43
2016-07-27T06:46:01.162Z,33.72
2016-07-27T06:47:01.176Z,33.92
2016-07-27T06:48:01.202Z,33.62
2016-07-27T06:49:01.199Z,34.39
2016-07-27T06:50:01.264Z,34.48
2016-07-27T06:51:01.227Z,34.97
2016-07-27T06:52:01.233Z,34.97
2016-07-27T06:53:01.248Z,34.97
2016-07-27T06:54:01.759Z,35.07
2016-07-27T06:55:01.274Z,34.68
2016-07-27T06:56:01.278Z,34.57
2016-07-27T06:57:01.292Z,34.96
2016-07-27T06:58:01.305Z,34.94
2016-07-27T06:59:01.316Z,35.33
2016-07-27T07:00:01.326Z,35.04
2016-07-27T07:02:01.751Z,34.75
2016-07-27T07:03:01.561Z,35.02
2016-07-27T07:04:01.371Z,35.12
2016-07-27T07:05:01.380Z,35.22
2016-07-27T07:06:01.387Z,35.8
2016-07-27T07:07:01.398Z,36
2016-07-27T07:08:01.408Z,36.1
2016-07-27T07:09:01.417Z,35.9
2016-07-27T07:10:01.430Z,36.1
2016-07-27T07:11:01.433Z,36.19
2016-07-27T07:12:01.453Z,36.18
2016-07-27T07:13:01.458Z,36
2016-07-27T07:14:01.468Z,36.19
2016-07-27T07:15:01.481Z,36.29
2016-07-27T07:16:01.484Z,36.68
2016-07-27T07:17:01.494Z,36.39
2016-07-27T07:18:01.506Z,36.58
2016-07-27T07:19:01.515Z,36.68
2016-07-27T07:20:01.528Z,36.58
2016-07-27T07:21:01.537Z,36.11
2016-07-27T07:22:01.549Z,35.74
2016-07-27T07:23:01.551Z,35.16
2016-07-27T07:24:01.566Z,35.25
2016-07-27T07:25:01.576Z,35.25
2016-07-27T07:26:02.295Z,35.25
2016-07-27T07:27:01.595Z,34.96
2016-07-27T07:28:01.604Z,35.04
2016-07-27T07:29:01.615Z,35.71
2016-07-27T07:30:01.634Z,36.19
2016-07-27T07:31:01.637Z,36.19
2016-07-27T07:32:01.649Z,36.47
2016-07-27T07:33:01.655Z,36.86
2016-07-27T07:34:01.664Z,37.05
2016-07-27T07:35:01.677Z,36.98
2016-07-27T07:36:01.687Z,36.29
2016-07-27T07:37:01.696Z,36.96
2016-07-27T07:38:01.711Z,37.45
2016-07-27T07:39:01.711Z,37.54
2016-07-27T07:40:01.723Z,37.25
2016-07-27T07:41:01.736Z,37.71
2016-07-27T07:42:01.741Z,37.91
2016-07-27T07:43:01.753Z,37.52
2016-07-27T07:44:01.762Z,37.99
2016-07-27T07:45:01.773Z,38.09
2016-07-27T07:46:01.775Z,38.38
2016-07-27T07:47:01.785Z,38.18
2016-07-27T07:48:01.797Z,38.38
2016-07-27T07:49:01.806Z,38.28
2016-07-27T07:50:01.809Z,38.28
2016-07-27T07:51:01.825Z,38.65
2016-07-27T07:52:01.831Z,38.75
2016-07-27T07:53:01.838Z,39.34
2016-07-27T07:54:01.848Z,39.62
2016-07-27T07:55:01.858Z,39.8
2016-07-27T07:56:01.865Z,40.19
2016-07-27T07:57:01.877Z,40.09
2016-07-27T07:58:01.878Z,40.27
2016-07-27T07:59:01.890Z,40.75
2016-07-27T08:00:01.894Z,41.05
2016-07-27T08:01:01.900Z,41.61
2016-07-27T08:02:01.909Z,41.13
2016-07-27T08:03:01.915Z,41.32
2016-07-27T08:04:01.927Z,41.32
2016-07-27T08:05:01.931Z,41.61
2016-07-27T08:06:01.941Z,41.71
2016-07-27T08:07:01.945Z,41.78
2016-07-27T08:08:01.952Z,42.27
2016-07-27T08:09:01.964Z,42.46
2016-07-27T08:10:01.967Z,42.27
2016-07-27T08:11:02.678Z,42.66
2016-07-27T08:12:01.983Z,42.76
2016-07-27T08:14:01.997Z,43.05
2016-07-27T08:15:02.002Z,43.32
2016-07-27T08:16:02.019Z,43.61
2016-07-27T08:17:02.017Z,44
2016-07-27T08:18:02.021Z,44.27
2016-07-27T08:20:02.038Z,44.56
2016-07-27T08:21:02.043Z,44.95
2016-07-27T08:22:02.850Z,45.24
2016-07-27T08:23:02.056Z,45.51
2016-07-27T08:24:02.062Z,46.09
2016-07-27T08:25:02.069Z,47.55
2016-07-27T08:26:02.123Z,48.3
2016-07-27T08:27:02.078Z,49.56
2016-07-27T08:28:02.079Z,51.09
2016-07-27T08:29:03.667Z,51.57
2016-07-27T08:30:03.411Z,52.51
2016-07-27T08:31:02.872Z,52.68
2016-07-27T08:32:03.007Z,53.45
2016-07-27T08:33:02.933Z,54.62
2016-07-27T08:34:02.229Z,57.01
2016-07-27T08:35:02.120Z,61.66
2016-07-27T08:36:02.125Z,65.88
2016-07-27T08:37:02.138Z,69.14
2016-07-27T08:38:02.131Z,70.84
2016-07-27T08:39:02.472Z,73.52
2016-07-27T08:40:02.463Z,74.83
2016-07-27T08:41:03.034Z,77.3
2016-07-27T08:42:02.152Z,78.85
2016-07-27T08:43:02.153Z,80.64
2016-07-27T08:44:02.160Z,81.9
2016-07-27T08:45:02.290Z,82.67
2016-07-27T08:46:02.163Z,84.07
2016-07-27T08:47:02.167Z,85.33
2016-07-27T08:48:04.294Z,86.04
2016-07-27T08:49:02.177Z,86.24
2016-07-27T08:50:02.285Z,87.01
2016-07-27T08:51:02.179Z,87.97
2016-07-27T08:52:02.181Z,88.36
2016-07-27T08:53:02.185Z,88.84
2016-07-27T08:54:02.193Z,90.23
2016-07-27T08:55:02.195Z,90.14
2016-07-27T08:56:02.189Z,90.43
2016-07-27T08:58:02.204Z,92.07
2016-07-27T08:59:02.200Z,91.3
2016-07-27T09:00:02.210Z,92.5
2016-07-27T09:01:02.211Z,92.89
2016-07-27T09:02:02.214Z,93.23
2016-07-27T09:03:02.216Z,93.41
2016-07-27T09:04:02.220Z,93.71
2016-07-27T09:05:02.226Z,94.14
2016-07-27T09:06:02.229Z,94.38
2016-07-27T09:07:02.234Z,94.48
2016-07-27T09:08:02.236Z,94.23
2016-07-27T09:09:02.248Z,94.52
2016-07-27T09:10:02.250Z,94.23
2016-07-27T09:11:02.951Z,94.37
2016-07-27T09:12:02.257Z,94.13
2016-07-27T09:13:02.267Z,92.49
2016-07-27T09:14:02.265Z,93.65
2016-07-27T09:15:02.272Z,93.26
2016-07-27T09:16:02.280Z,92.87
2016-07-27T09:17:02.285Z,91.9
2016-07-27T09:18:02.288Z,91.61
2016-07-27T09:19:02.299Z,90.45
2016-07-27T09:20:02.307Z,90.3
2016-07-27T09:21:02.311Z,89.92
2016-07-27T09:22:02.313Z,89.92
2016-07-27T09:23:02.319Z,89.09
2016-07-27T09:24:02.323Z,88.89
2016-07-27T09:25:02.329Z,89.28
2016-07-27T09:26:02.343Z,89.32
2016-07-27T09:27:02.348Z,89.95
2016-07-27T09:28:02.350Z,90.24
2016-07-27T09:29:02.363Z,90
2016-07-27T09:30:02.370Z,90.38
2016-07-27T09:31:02.370Z,90.81
2016-07-27T09:32:02.384Z,90.81
2016-07-27T09:33:02.392Z,90.18
2016-07-27T09:34:02.398Z,89.01
2016-07-27T09:35:02.404Z,88.67
2016-07-27T09:36:02.411Z,87.21
2016-07-27T09:37:02.422Z,86.53
2016-07-27T09:38:02.429Z,87.3
2016-07-27T09:39:02.439Z,86.77
2016-07-27T09:40:02.442Z,86.28
2016-07-27T09:41:02.446Z,85.54
2016-07-27T09:42:02.457Z,86.13
2016-07-27T09:43:02.462Z,85.19
2016-07-27T09:44:02.472Z,86.36
2016-07-27T09:45:02.483Z,84.52
2016-07-27T09:46:02.486Z,85.72
2016-07-27T09:47:02.520Z,86.41
2016-07-27T09:48:03.466Z,87.81
2016-07-27T09:49:03.979Z,86.25
2016-07-27T09:50:02.982Z,87.37
2016-07-27T09:51:02.529Z,85.85
2016-07-27T09:52:02.540Z,86.24
2016-07-27T09:53:02.712Z,86.05
2016-07-27T09:54:02.553Z,84.92
2016-07-27T09:55:02.566Z,83.45
2016-07-27T09:56:02.571Z,83.2
2016-07-27T09:57:02.577Z,82.03
2016-07-27T09:58:03.691Z,80.8
2016-07-27T09:59:03.166Z,80.6
2016-07-27T10:00:02.612Z,77.77
2016-07-27T10:01:02.633Z,74.58
2016-07-27T10:02:02.632Z,72.92
2016-07-27T10:03:02.639Z,72.72
2016-07-27T10:04:02.647Z,72.08
2016-07-27T10:05:02.654Z,71.69
2016-07-27T10:06:02.662Z,69.14
2016-07-27T10:07:02.677Z,69.63
2016-07-27T10:09:02.695Z,62.98
2016-07-27T10:10:02.707Z,61.12
2016-07-27T10:11:02.717Z,62.26
2016-07-27T10:12:02.725Z,63.44
2016-07-27T10:13:02.729Z,63.34
2016-07-27T10:14:02.743Z,63.86
2016-07-27T10:15:02.750Z,64.06
2016-07-27T10:16:02.760Z,64.48
2016-07-27T10:17:02.775Z,62.23
2016-07-27T10:18:02.778Z,61.18
2016-07-27T10:19:02.793Z,60.4
2016-07-27T10:20:02.804Z,59.03
2016-07-27T10:21:02.815Z,58.64
2016-07-27T10:22:02.820Z,58.73
2016-07-27T10:24:02.848Z,58.34
2016-07-27T10:25:02.854Z,58.73
2016-07-27T10:26:02.863Z,58.34
2016-07-27T10:27:02.872Z,58.17
2016-07-27T10:28:03.835Z,58.05
2016-07-27T10:30:03.946Z,56.68
2016-07-27T10:31:02.909Z,57.66
2016-07-27T10:32:02.921Z,57.46
2016-07-27T10:33:02.929Z,57.95
2016-07-27T10:34:02.938Z,56.77
2016-07-27T10:35:02.948Z,56.97
2016-07-27T10:36:02.962Z,56.58
2016-07-27T10:37:02.969Z,56.38
2016-07-27T10:38:03.876Z,56.48
2016-07-27T10:39:03.591Z,56.58
2016-07-27T10:40:02.997Z,55.41
2016-07-27T10:41:03.054Z,55.08
2016-07-27T10:42:03.014Z,54.11
2016-07-27T10:43:03.024Z,54.5
2016-07-27T10:44:03.035Z,54.13
2016-07-27T10:45:03.044Z,54.3
2016-07-27T10:46:03.052Z,55.08
2016-07-27T10:47:03.060Z,55.47
2016-07-27T10:48:03.070Z,55.57
2016-07-27T10:49:03.080Z,55.21
2016-07-27T10:50:03.440Z,53.84
2016-07-27T10:51:03.102Z,52.47
2016-07-27T10:52:03.115Z,49.43
2016-07-27T10:53:03.118Z,50.59
2016-07-27T10:54:03.129Z,51.07
2016-07-27T10:55:03.138Z,50.17
2016-07-27T10:56:03.149Z,48.6
2016-07-27T10:57:03.155Z,48.6
2016-07-27T10:58:03.165Z,48.77
2016-07-27T10:59:03.177Z,50.05
2016-07-27T11:00:03.185Z,51.03
2016-07-27T11:01:03.204Z,50.73
2016-07-27T11:02:03.203Z,51.12
2016-07-27T11:03:03.217Z,51.61
2016-07-27T11:04:03.220Z,51.42
2016-07-27T11:05:04.749Z,51.73
2016-07-27T11:06:05.166Z,51.61
2016-07-27T11:07:03.408Z,51.05
2016-07-27T11:08:03.678Z,49.26
2016-07-27T11:09:03.271Z,48.48
2016-07-27T11:10:03.282Z,48.28
2016-07-27T11:11:03.296Z,48.26
2016-07-27T11:12:03.294Z,47.09
2016-07-27T11:13:03.309Z,46.48
2016-07-27T11:14:03.311Z,47.17
2016-07-27T11:15:03.953Z,48.12
2016-07-27T11:16:04.909Z,48.12
2016-07-27T11:17:03.641Z,47.44
2016-07-27T11:18:03.348Z,47.34
2016-07-27T11:19:03.357Z,46.56
2016-07-27T11:20:03.373Z,46.73
2016-07-27T11:21:03.375Z,47.22
2016-07-27T11:22:03.385Z,47.61
2016-07-27T11:23:03.397Z,47.31
2016-07-27T11:24:03.404Z,46.83
2016-07-27T11:25:03.416Z,46.83
2016-07-27T11:26:03.419Z,47.12
2016-07-27T11:27:03.430Z,47.12
2016-07-27T11:28:03.437Z,46.34
2016-07-27T11:29:03.447Z,46.14
2016-07-27T11:30:03.455Z,46.24
2016-07-27T11:31:03.463Z,45.85
2016-07-27T11:32:03.469Z,46.44
2016-07-27T11:33:03.480Z,46.63
2016-07-27T11:35:03.501Z,46.14
2016-07-27T11:36:03.506Z,46.34
2016-07-27T11:37:03.513Z,46.61
2016-07-27T11:38:03.522Z,46.63
2016-07-27T11:39:03.530Z,45.85
2016-07-27T11:40:03.541Z,46.22
2016-07-27T11:41:03.546Z,46.61
2016-07-27T11:42:03.552Z,46.9
2016-07-27T11:43:03.560Z,47.19
2016-07-27T11:44:03.568Z,47
2016-07-27T11:45:03.576Z,47.19
2016-07-27T11:46:03.597Z,46.61
2016-07-27T11:47:03.603Z,46.34
2016-07-27T11:48:03.601Z,46.9
2016-07-27T11:49:03.609Z,46.41
2016-07-27T11:50:03.616Z,46.73
2016-07-27T11:51:03.627Z,46.92
2016-07-27T11:52:03.635Z,46.24
2016-07-27T11:53:03.645Z,45.95
2016-07-27T11:54:03.647Z,46.04
2016-07-27T11:55:03.654Z,45.75
2016-07-27T11:56:03.665Z,45.65
2016-07-27T11:57:03.675Z,45.36
2016-07-27T11:58:03.684Z,45.29
2016-07-27T11:59:03.687Z,45.36
2016-07-27T12:00:03.696Z,45.26
2016-07-27T12:01:03.701Z,45.65
2016-07-27T12:02:03.715Z,45.56
2016-07-27T12:03:03.724Z,45.85
2016-07-27T12:04:03.729Z,45.85
2016-07-27T12:05:03.735Z,45.85
2016-07-27T12:06:03.747Z,45.75
2016-07-27T12:07:03.751Z,45.36
2016-07-27T12:08:03.762Z,45.46
2016-07-27T12:09:03.768Z,45.56
2016-07-27T12:10:03.770Z,45.46
2016-07-27T12:11:03.782Z,45.17
2016-07-27T12:12:03.788Z,45.26
2016-07-27T12:13:03.801Z,45.36
2016-07-27T12:14:03.807Z,45.17
2016-07-27T12:15:03.813Z,45.17
2016-07-27T12:16:03.836Z,45.07
2016-07-27T12:17:03.830Z,44.29
2016-07-27T12:18:03.842Z,43.99
2016-07-27T12:19:03.850Z,44.29
2016-07-27T12:20:03.856Z,44.48
2016-07-27T12:21:03.869Z,44.38
2016-07-27T12:22:03.874Z,44.58
2016-07-27T12:23:03.882Z,44.41
2016-07-27T12:24:04.629Z,44.02
2016-07-27T12:25:03.986Z,43.85
2016-07-27T12:26:05.191Z,43.85
2016-07-27T12:27:04.948Z,43.85
2016-07-27T12:28:04.693Z,43.57
2016-07-27T12:29:03.930Z,43.77
2016-07-27T12:30:04.168Z,43.3
2016-07-27T12:31:03.946Z,43.1
2016-07-27T12:32:03.954Z,42.91
2016-07-27T12:33:05.368Z,42.93
2016-07-27T12:34:05.353Z,41.76
2016-07-27T12:35:04.995Z,41.29
2016-07-27T12:36:03.990Z,41.27
2016-07-27T12:37:04.003Z,41.36
2016-07-27T12:38:04.886Z,41.66
2016-07-27T12:39:04.019Z,41.76
2016-07-27T12:40:04.042Z,41.86
2016-07-27T12:41:04.035Z,41.78
2016-07-27T12:42:04.045Z,41.68
2016-07-27T12:43:04.057Z,40.7
2016-07-27T12:44:04.068Z,41.11
2016-07-27T12:45:04.076Z,41.02
2016-07-27T12:46:04.092Z,40.43
2016-07-27T12:48:04.104Z,40.82
2016-07-27T12:49:04.163Z,41.11
2016-07-27T12:50:04.325Z,41.49
2016-07-27T12:52:04.140Z,40.8
2016-07-27T12:53:04.151Z,41.09
2016-07-27T12:54:04.261Z,41.19
2016-07-27T12:55:04.168Z,41.09
2016-07-27T12:56:05.235Z,41
2016-07-27T12:57:04.537Z,41
2016-07-27T12:58:04.397Z,41.66
2016-07-27T12:59:04.602Z,41.66
2016-07-27T13:00:04.217Z,41.54
2016-07-27T13:01:04.718Z,41.74
2016-07-27T13:02:04.230Z,41.44
2016-07-27T13:03:04.544Z,41.54
2016-07-27T13:04:04.256Z,41.74
2016-07-27T13:05:04.262Z,41.46
2016-07-27T13:06:04.269Z,41.46
2016-07-27T13:07:04.277Z,41.46
2016-07-27T13:08:04.283Z,41.74
2016-07-27T13:09:04.295Z,41.44
2016-07-27T13:10:04.997Z,41.44
2016-07-27T13:11:04.315Z,41.44
2016-07-27T13:12:04.320Z,41.35
2016-07-27T13:13:04.325Z,41.74